NCAR-RAP Real-Time Weather Data

Output produced by METARs form (08 May 2021  17:09 UTC)
found at http://weather.rap.ucar.edu/surface/
 
KPNS 081653Z 16007KT 10SM CLR 24/12 A3015 RMK AO2 SLP211 T02390117
KPNS 081553Z 13007KT 10SM CLR 24/12 A3016 RMK AO2 SLP215 T02390117
KPNS 081453Z 13008KT 080V160 10SM CLR 24/12 A3017 RMK AO2 SLP217 T02390122 51013
KPNS 081353Z 09006KT 10SM CLR 22/13 A3016 RMK AO2 SLP213 T02170128
KPNS 081253Z 10005KT 10SM CLR 21/12 A3015 RMK AO2 SLP210 T02060122
KPNS 081153Z 06003KT 10SM CLR 18/11 A3013 RMK AO2 SLP204 T01780106 10183 20161 53013
KPNS 081053Z 09004KT 10SM CLR 17/09 A3010 RMK AO2 SLP196 T01720089
KPNS 080953Z AUTO 08003KT 10SM CLR 16/09 A3010 RMK AO2 SLP195 T01610094
KPNS 080853Z AUTO 07004KT 10SM CLR 17/09 A3009 RMK AO2 SLP191 T01670089 55003
KPNS 080753Z AUTO 04003KT 10SM CLR 17/09 A3009 RMK AO2 SLP190 T01720089
KPNS 080653Z AUTO 04005KT 10SM CLR 18/09 A3009 RMK AO2 SLP191 T01780089
KPNS 080553Z AUTO 04005KT 10SM CLR 18/08 A3010 RMK AO2 SLP194 T01830083 10244 20183 402830144 50001
KPNS 080453Z AUTO 03004KT 10SM CLR 19/09 A3011 RMK AO2 SLP196 T01890089
KPNS 080353Z AUTO 36004KT 10SM CLR 18/10 A3010 RMK AO2 SLP194 T01830100
KPNS 080253Z 01004KT 10SM CLR 19/09 A3010 RMK AO2 SLP193 T01890089 53014